• Join FlightAware (Why Join?)
  • Login
  • US Flag 
02:37PM EDT


 

Airport Tracker/Info


-or-


 

Live Flight TrackerFlight Track Log ✈ UAL326 ✈ 07-May-2013 ✈ KMCO - KIAD

Flight Track Log - Related Links

Times and Time Zones

All times are in EDT time to prevent confusion due to time zone crossing. See the UAL326 flight status page for this flight to view local times or setup timezone preferences in your user account.

Time Position Orientation Groundspeed Altitude Reporting Facility
EDT Latitude Longitude Course Direction KTS MPH feet Rate Location/Type
02:00PM 28.4000 -81.3000 North 151 174 800  Level Orlando TRACON
02:00PM 28.3833 -81.2833 139° Southeast 175 201 1,500 1,920 Climbing Orlando TRACON
02:01PM 28.3333 -81.2667 164° South 255 293 3,800 2,400 Climbing Orlando TRACON
02:02PM 28.3333 -81.1833 90° East 291 335 6,300 2,100 Climbing Orlando TRACON
02:03PM 28.9251 -81.3592 355° North  Level FlightAware Approximate
02:03PM 28.3333 -81.0833 90° East 299 344 8,000  Level Orlando TRACON
02:04PM 29.0536 -81.3774 350° North  Level FlightAware Approximate
02:05PM 29.1828 -81.3833 North  Level FlightAware Approximate
02:05PM 28.4000 -81.0333 33° Northeast 284 327 8,900  Level Orlando TRACON
02:07PM 28.5531 -81.1178 334° Northwest 323 372 12,000 1,920 Climbing Jacksonville Center
02:08PM 28.6475 -81.1633 337° Northwest 348 400 14,900 2,220 Climbing Jacksonville Center
02:10PM 28.8450 -81.2642 336° Northwest 381 438 18,700 1,860 Climbing Jacksonville Center
02:11PM 28.9458 -81.3122 337° Northwest 391 450 20,600 1,680 Climbing Jacksonville Center
02:12PM 29.0508 -81.3700 334° Northwest 402 463 22,100 1,500 Climbing Jacksonville Center
02:13PM 29.1658 -81.3967 349° North 408 470 23,600 1,320 Climbing Jacksonville Center
02:14PM 29.2914 -81.4067 356° North 425 489 24,800 1,200 Climbing Jacksonville Center
02:15PM 29.4189 -81.4192 355° North 447 514 26,000 1,140 Climbing Jacksonville Center
02:16PM 29.5464 -81.4364 353° North 452 520 27,100 1,080 Climbing Jacksonville Center
02:17PM 29.6758 -81.4464 356° North 465 535 28,200 1,020 Climbing Jacksonville Center
02:18PM 29.8075 -81.4611 354° North 465 535 29,200 900 Climbing Jacksonville Center
02:19PM 29.9369 -81.4714 356° North 465 535 30,100 900 Climbing Jacksonville Center
02:20PM 30.0833 -81.4858 355° North 465 535 31,100 960 Climbing Jacksonville Center
02:21PM 30.2150 -81.4983 355° North 470 541 32,100 1,020 Climbing Jacksonville Center
02:22PM 30.3489 -81.5086 356° North 470 541 33,200 840 Climbing Jacksonville Center
02:23PM 30.4822 -81.4992 North 475 547 33,800 660 Climbing Jacksonville Center
02:24PM 30.6178 -81.4878 North 481 554 34,600 600 Climbing Jacksonville Center
02:25PM 30.7514 -81.4761 North 481 554 35,000 180 Climbing Jacksonville Center
02:26PM 30.8869 -81.4667 North 476 548 35,000  Level Jacksonville Center
02:27PM 31.0206 -81.4575 North 476 548 35,000  Level Jacksonville Center
02:28PM 31.1581 -81.4456 North 482 555 35,100  Climbing Jacksonville Center
02:29PM 31.2917 -81.4289 North 481 554 35,000 -60 Descending Jacksonville Center
02:30PM 31.4228 -81.3906 14° North 480 552 35,000  Level Jacksonville Center
02:31PM 31.5558 -81.3567 12° North 485 558 35,000  Level Jacksonville Center
02:32PM 31.6744 -81.3253 13° North 485 558 35,000  Level Jacksonville Center
02:33PM 31.8158 -81.2642 20° North 485 558 35,000  Level Jacksonville Center
02:34PM 31.9339 -81.2033 24° Northeast 498 573 35,000 -60 Level Jacksonville Center
02:35PM 32.0603 -81.1325 25° Northeast 498 573 34,900  Descending Jacksonville Center
02:36PM 32.2033 -81.0536 25° Northeast 498 573 35,000 60 Climbing Jacksonville Center
02:37PM 32.3172 -80.9900 25° Northeast 498 573 35,100  Climbing Jacksonville Center
02:38PM 32.4456 -80.9158 26° Northeast 498 573 35,000 -60 Descending Jacksonville Center
02:39PM 32.5675 -80.8467 26° Northeast 498 573 35,000 -60 Level Jacksonville Center
02:40PM 32.6917 -80.7747 26° Northeast 498 573 34,900 -60 Descending Jacksonville Center
02:41PM 32.8136 -80.7050 26° Northeast 492 566 34,900  Level Jacksonville Center
02:42PM 32.9375 -80.6353 25° Northeast 487 560 34,900  Level Jacksonville Center
02:43PM 33.0617 -80.5653 25° Northeast 482 555 35,000  Climbing Jacksonville Center
02:44PM 33.1856 -80.4950 25° Northeast 482 555 35,000  Level Jacksonville Center
02:45PM 33.3197 -80.4192 25° Northeast 482 555 35,000 -60 Level Jacksonville Center
02:46PM 33.4456 -80.3436 27° Northeast 482 555 34,900 -60 Descending Jacksonville Center
02:47PM 33.5672 -80.2728 26° Northeast 482 555 34,900  Level Jacksonville Center
02:48PM 33.6928 -80.1992 26° Northeast 482 555 35,000  Climbing Jacksonville Center
02:49PM 33.8206 -80.1228 26° Northeast 488 562 35,000  Level Jacksonville Center
02:50PM 33.9442 -80.0489 26° Northeast 488 562 35,000  Level Jacksonville Center
02:51PM 34.0697 -79.9769 25° Northeast 488 562 35,000 -60 Level Jacksonville Center
02:52PM 34.1911 -79.9028 27° Northeast 493 567 34,900 -60 Descending Jacksonville Center
02:53PM 34.3147 -79.8306 26° Northeast 488 562 34,900  Level Jacksonville Center
02:54PM 34.4339 -79.7583 27° Northeast 481 554 34,900  Level Jacksonville Center
02:55PM 34.6375 -79.6358 26° Northeast 475 547 35,000  Climbing Washington Center
02:56PM 34.7589 -79.5658 25° Northeast 475 547 35,000  Level Washington Center
02:57PM 34.8803 -79.4883 28° Northeast 481 554 35,000  Level Washington Center
02:58PM 35.0017 -79.4181 25° Northeast 481 554 35,000  Level Washington Center
02:59PM 35.1208 -79.3450 27° Northeast 481 554 35,000  Level Washington Center
03:00PM 35.2419 -79.2719 26° Northeast 481 554 35,000  Level Washington Center
03:01PM 35.3653 -79.1961 27° Northeast 487 560 35,000 -420 Level Washington Center
03:02PM 35.4714 -79.1319 26° Northeast 479 551 34,200 -900 Descending Washington Center
03:03PM 35.6053 -79.0511 26° Northeast 479 551 33,200 -960 Descending Washington Center
03:04PM 35.7264 -78.9744 27° Northeast 479 551 32,300 -960 Descending Washington Center
03:05PM 35.8475 -78.9028 26° Northeast 479 551 31,300 -1,020 Descending Washington Center
03:06PM 35.9664 -78.8256 28° Northeast 479 551 30,300 -720 Descending Washington Center
03:07PM 36.0850 -78.7533 26° Northeast 479 551 29,900 -660 Descending Washington Center
03:08PM 36.2058 -78.6886 23° Northeast 479 551 29,000 -960 Descending Washington Center
03:09PM 36.3147 -78.7472 337° Northwest 403 464 28,100 -780 Descending Washington Center
03:10PM 36.2842 -78.8825 254° West 284 327 27,500 -600 Descending Washington Center
03:11PM 36.1803 -78.8575 169° South 180 207 27,000 -300 Descending Washington Center
03:12PM 36.1964 -78.7269 81° East 191 220 27,000  Level Washington Center
03:13PM 36.2986 -78.6511 31° Northeast 277 319 27,000  Level Washington Center
03:14PM 36.4067 -78.5806 28° Northeast 370 426 27,000  Level Washington Center
03:15PM 36.5083 -78.5172 27° Northeast 392 451 27,000  Level Washington Center
03:16PM 36.6039 -78.4536 28° Northeast 392 451 27,000  Level Washington Center
03:17PM 36.6950 -78.3894 29° Northeast 385 443 27,000  Level Washington Center
03:18PM 36.7906 -78.3256 28° Northeast 379 436 27,000  Level Washington Center
03:19PM 36.8817 -78.2639 28° Northeast 379 436 27,000  Level Washington Center
03:20PM 36.9461 -78.1778 47° Northeast 337 388 27,000  Level Washington Center
03:21PM 36.9608 -78.0664 81° East 305 351 27,000  Level Washington Center
03:22PM 37.0253 -77.9722 49° Northeast 329 379 27,000  Level Washington Center
03:23PM 37.0939 -77.8806 47° Northeast 343 395 27,000 -300 Level Washington Center
03:24PM 37.1625 -77.7889 47° Northeast 354 407 26,500 -780 Descending Washington Center
03:25PM 37.2617 -77.7133 31° Northeast 383 441 25,500 -1,020 Descending Washington Center
03:26PM 37.3772 -77.6800 13° North 394 453 24,500 -1,260 Descending Washington Center
03:27PM 37.4925 -77.6414 15° North 412 474 23,100 -1,620 Descending Washington Center
03:28PM 37.6078 -77.6025 15° North 418 481 21,300 -1,740 Descending Washington Center
03:29PM 37.7169 -77.5633 16° North 413 475 19,700 -1,740 Descending Washington Center
03:30PM 37.8219 -77.5292 14° North 401 461 17,900 -1,920 Descending Washington Center
03:31PM 37.9225 -77.4950 15° North 382 440 15,800 -2,160 Descending Washington Center
03:32PM 38.0189 -77.4606 16° North 363 418 13,600 -2,220 Descending Washington Center
03:33PM 38.1006 -77.4361 13° North 347 399 11,500 -1,800 Descending Washington Center
03:34PM 38.1908 -77.4067 14° North 335 386 10,100 -840 Descending Washington Center
03:35PM 38.2767 -77.3769 15° North 324 373 9,800 -840 Descending Washington Center
03:36PM 38.3564 -77.3550 12° North 310 357 8,500 -1,440 Descending Washington Center
03:37PM 38.4439 -77.3625 356° North 305 351 7,000 -1,500 Descending Washington Center
03:38PM 38.5269 -77.3831 349° North 305 351 5,500 -1,380 Descending Washington Center
03:39PM 38.6014 -77.4247 336° Northwest 300 345 4,200 -720 Descending Washington Center
03:40PM 38.6650 -77.4767 327° Northwest 284 327 4,100 -60 Descending Washington Center
03:41PM 38.7289 -77.5264 329° Northwest 274 315 4,100 -60 Level Washington Center
03:42PM 38.8000 -77.5000 16° North 234 269 4,000 -60 Descending Potomac TRACON
03:43PM 38.8667 -77.4500 30° Northeast 236 272 4,000  Level Potomac TRACON
03:44PM 38.9167 -77.4000 38° Northeast 236 272 4,000  Level Potomac TRACON
03:45PM 38.9667 -77.3500 38° Northeast 236 272 4,000  Level Potomac TRACON
03:46PM 39.0333 -77.3500 360° North 238 274 4,000  Level Potomac TRACON
03:47PM 39.1000 -77.3667 349° North 199 229 4,000 -600 Level Potomac TRACON
03:48PM 39.1500 -77.3667 360° North 199 229 2,800 -1,020 Descending Potomac TRACON
03:49PM 39.1500 -77.4333 270° West 205 236 2,000 -420 Descending Potomac TRACON
03:50PM 39.1000 -77.4333 180° South 166 191 2,000  Level Potomac TRACON
03:51PM 39.0500 -77.4333 180° South 167 192 2,000  Level Potomac TRACON